sensor_id;sensor_type;location;lat;lon;timestamp;temperature;humidity
21108;DHT22;10712;52.944;9.098;2023-02-28T00:00:31;1.70;84.50
21108;DHT22;10712;52.944;9.098;2023-02-28T00:02:57;1.60;84.20
21108;DHT22;10712;52.944;9.098;2023-02-28T00:05:25;1.60;84.20
21108;DHT22;10712;52.944;9.098;2023-02-28T00:07:53;1.60;84.50
21108;DHT22;10712;52.944;9.098;2023-02-28T00:10:25;1.50;84.20
21108;DHT22;10712;52.944;9.098;2023-02-28T00:12:55;1.40;84.10
21108;DHT22;10712;52.944;9.098;2023-02-28T00:15:24;1.40;84.00
21108;DHT22;10712;52.944;9.098;2023-02-28T00:17:51;1.40;84.20
21108;DHT22;10712;52.944;9.098;2023-02-28T00:20:18;1.30;84.30
21108;DHT22;10712;52.944;9.098;2023-02-28T00:22:49;1.30;84.20
21108;DHT22;10712;52.944;9.098;2023-02-28T00:25:18;1.30;84.10
21108;DHT22;10712;52.944;9.098;2023-02-28T00:27:48;1.20;84.10
21108;DHT22;10712;52.944;9.098;2023-02-28T00:30:17;1.20;84.00
21108;DHT22;10712;52.944;9.098;2023-02-28T00:32:45;1.10;84.00
21108;DHT22;10712;52.944;9.098;2023-02-28T00:35:11;1.10;84.00
21108;DHT22;10712;52.944;9.098;2023-02-28T00:37:40;1.10;84.00
21108;DHT22;10712;52.944;9.098;2023-02-28T00:40:08;1.00;84.30
21108;DHT22;10712;52.944;9.098;2023-02-28T00:42:35;1.00;84.30
21108;DHT22;10712;52.944;9.098;2023-02-28T00:45:02;0.90;84.30
21108;DHT22;10712;52.944;9.098;2023-02-28T00:47:30;0.90;84.40
21108;DHT22;10712;52.944;9.098;2023-02-28T00:49:57;0.90;84.40
21108;DHT22;10712;52.944;9.098;2023-02-28T00:52:22;0.80;84.50
21108;DHT22;10712;52.944;9.098;2023-02-28T00:54:48;0.80;84.60
21108;DHT22;10712;52.944;9.098;2023-02-28T00:57:14;0.80;84.60
21108;DHT22;10712;52.944;9.098;2023-02-28T00:59:40;0.70;84.80
21108;DHT22;10712;52.944;9.098;2023-02-28T01:02:06;0.70;84.80
21108;DHT22;10712;52.944;9.098;2023-02-28T01:04:32;0.70;85.00
21108;DHT22;10712;52.944;9.098;2023-02-28T01:07:00;0.60;85.20
21108;DHT22;10712;52.944;9.098;2023-02-28T01:09:27;0.60;85.40
21108;DHT22;10712;52.944;9.098;2023-02-28T01:11:53;0.60;85.40
21108;DHT22;10712;52.944;9.098;2023-02-28T01:14:19;0.60;85.50
21108;DHT22;10712;52.944;9.098;2023-02-28T01:16:45;0.60;85.50
21108;DHT22;10712;52.944;9.098;2023-02-28T01:19:11;0.60;85.50
21108;DHT22;10712;52.944;9.098;2023-02-28T01:21:38;0.60;85.50
21108;DHT22;10712;52.944;9.098;2023-02-28T01:24:05;0.60;85.30
21108;DHT22;10712;52.944;9.098;2023-02-28T01:26:32;0.50;85.10
21108;DHT22;10712;52.944;9.098;2023-02-28T01:28:58;0.50;84.80
21108;DHT22;10712;52.944;9.098;2023-02-28T01:31:24;0.40;84.90
21108;DHT22;10712;52.944;9.098;2023-02-28T01:33:51;0.40;84.90
21108;DHT22;10712;52.944;9.098;2023-02-28T01:36:22;0.40;84.90
21108;DHT22;10712;52.944;9.098;2023-02-28T01:38:50;0.40;84.90
21108;DHT22;10712;52.944;9.098;2023-02-28T01:41:22;0.40;84.80
21108;DHT22;10712;52.944;9.098;2023-02-28T01:47:24;0.30;84.90
21108;DHT22;10712;52.944;9.098;2023-02-28T01:49:56;0.30;84.90
21108;DHT22;10712;52.944;9.098;2023-02-28T01:52:24;0.30;85.00
21108;DHT22;10712;52.944;9.098;2023-02-28T01:54:55;0.30;84.80
21108;DHT22;10712;52.944;9.098;2023-02-28T01:57:25;0.20;84.80
21108;DHT22;10712;52.944;9.098;2023-02-28T02:00:05;0.20;84.70
21108;DHT22;10712;52.944;9.098;2023-02-28T02:02:39;0.20;84.40
21108;DHT22;10712;52.944;9.098;2023-02-28T02:05:15;0.10;84.50
21108;DHT22;10712;52.944;9.098;2023-02-28T02:07:46;0.10;84.30
21108;DHT22;10712;52.944;9.098;2023-02-28T02:10:16;0.10;84.20
21108;DHT22;10712;52.944;9.098;2023-02-28T02:18:49;0.00;84.50
21108;DHT22;10712;52.944;9.098;2023-02-28T02:25:08;0.00;84.40
21108;DHT22;10712;52.944;9.098;2023-02-28T02:36:01;-0.10;83.80
21108;DHT22;10712;52.944;9.098;2023-02-28T02:38:34;-0.20;83.80
21108;DHT22;10712;52.944;9.098;2023-02-28T02:41:14;-0.20;83.90
21108;DHT22;10712;52.944;9.098;2023-02-28T02:43:50;-0.20;84.10
21108;DHT22;10712;52.944;9.098;2023-02-28T02:46:28;-0.20;84.10
21108;DHT22;10712;52.944;9.098;2023-02-28T02:49:00;-0.20;83.90
21108;DHT22;10712;52.944;9.098;2023-02-28T02:51:30;-0.20;84.00
21108;DHT22;10712;52.944;9.098;2023-02-28T02:54:05;-0.30;83.60
21108;DHT22;10712;52.944;9.098;2023-02-28T02:56:42;-0.30;83.80
21108;DHT22;10712;52.944;9.098;2023-02-28T02:59:13;-0.30;83.90
21108;DHT22;10712;52.944;9.098;2023-02-28T03:01:52;-0.30;84.00
21108;DHT22;10712;52.944;9.098;2023-02-28T03:04:24;-0.30;83.90
21108;DHT22;10712;52.944;9.098;2023-02-28T03:06:54;-0.40;83.50
21108;DHT22;10712;52.944;9.098;2023-02-28T03:09:22;-0.40;83.50
21108;DHT22;10712;52.944;9.098;2023-02-28T03:11:49;-0.50;83.40
21108;DHT22;10712;52.944;9.098;2023-02-28T03:14:38;-0.50;83.70
21108;DHT22;10712;52.944;9.098;2023-02-28T03:17:28;-0.50;83.90
21108;DHT22;10712;52.944;9.098;2023-02-28T03:23:13;-0.60;83.50
21108;DHT22;10712;52.944;9.098;2023-02-28T03:26:02;-0.60;84.00
21108;DHT22;10712;52.944;9.098;2023-02-28T03:28:51;-0.70;84.10
21108;DHT22;10712;52.944;9.098;2023-02-28T03:31:39;-0.70;84.20
21108;DHT22;10712;52.944;9.098;2023-02-28T03:34:17;-0.70;84.00
21108;DHT22;10712;52.944;9.098;2023-02-28T03:36:53;-0.70;83.90
21108;DHT22;10712;52.944;9.098;2023-02-28T03:39:39;-0.70;83.70
21108;DHT22;10712;52.944;9.098;2023-02-28T03:42:20;-0.80;83.30
21108;DHT22;10712;52.944;9.098;2023-02-28T03:44:58;-0.80;83.40
21108;DHT22;10712;52.944;9.098;2023-02-28T03:50:49;-1.00;83.40
21108;DHT22;10712;52.944;9.098;2023-02-28T03:53:30;-1.00;83.40
21108;DHT22;10712;52.944;9.098;2023-02-28T03:56:20;-1.10;83.20
21108;DHT22;10712;52.944;9.098;2023-02-28T03:59:06;-1.20;83.60
21108;DHT22;10712;52.944;9.098;2023-02-28T04:01:43;-1.20;84.10
21108;DHT22;10712;52.944;9.098;2023-02-28T04:04:12;-1.30;84.00
21108;DHT22;10712;52.944;9.098;2023-02-28T04:06:39;-1.30;84.40
21108;DHT22;10712;52.944;9.098;2023-02-28T04:09:08;-1.30;84.40
21108;DHT22;10712;52.944;9.098;2023-02-28T04:14:05;-1.40;83.80
21108;DHT22;10712;52.944;9.098;2023-02-28T04:16:33;-1.50;83.80
21108;DHT22;10712;52.944;9.098;2023-02-28T04:19:01;-1.60;84.00
21108;DHT22;10712;52.944;9.098;2023-02-28T04:21:32;-1.60;84.10
21108;DHT22;10712;52.944;9.098;2023-02-28T04:24:05;-1.60;84.70
21108;DHT22;10712;52.944;9.098;2023-02-28T04:26:33;-1.60;85.10
21108;DHT22;10712;52.944;9.098;2023-02-28T04:29:01;-1.60;85.40
21108;DHT22;10712;52.944;9.098;2023-02-28T04:31:27;-1.60;85.10
21108;DHT22;10712;52.944;9.098;2023-02-28T04:33:53;-1.70;84.60
21108;DHT22;10712;52.944;9.098;2023-02-28T04:36:19;-1.70;84.60
21108;DHT22;10712;52.944;9.098;2023-02-28T04:38:45;-1.80;84.90
21108;DHT22;10712;52.944;9.098;2023-02-28T04:41:15;-1.80;84.90
21108;DHT22;10712;52.944;9.098;2023-02-28T04:43:42;-1.90;84.60
21108;DHT22;10712;52.944;9.098;2023-02-28T04:46:08;-2.00;84.50
21108;DHT22;10712;52.944;9.098;2023-02-28T04:48:36;-2.00;84.80
21108;DHT22;10712;52.944;9.098;2023-02-28T04:51:09;-2.10;85.00
21108;DHT22;10712;52.944;9.098;2023-02-28T04:53:38;-2.10;85.30
21108;DHT22;10712;52.944;9.098;2023-02-28T04:56:06;-2.10;85.90
21108;DHT22;10712;52.944;9.098;2023-02-28T04:58:34;-2.00;86.20
21108;DHT22;10712;52.944;9.098;2023-02-28T05:01:25;-2.00;86.40
21108;DHT22;10712;52.944;9.098;2023-02-28T05:03:54;-1.90;86.40
21108;DHT22;10712;52.944;9.098;2023-02-28T05:06:23;-1.80;86.40
21108;DHT22;10712;52.944;9.098;2023-02-28T05:08:51;-1.80;86.30
21108;DHT22;10712;52.944;9.098;2023-02-28T05:11:26;-1.80;85.80
21108;DHT22;10712;52.944;9.098;2023-02-28T05:14:03;-1.90;85.00
21108;DHT22;10712;52.944;9.098;2023-02-28T05:16:30;-2.00;84.80
21108;DHT22;10712;52.944;9.098;2023-02-28T05:18:57;-2.00;85.30
21108;DHT22;10712;52.944;9.098;2023-02-28T05:21:31;-2.00;85.40
21108;DHT22;10712;52.944;9.098;2023-02-28T05:24:02;-2.00;85.40
21108;DHT22;10712;52.944;9.098;2023-02-28T05:26:38;-2.00;85.50
21108;DHT22;10712;52.944;9.098;2023-02-28T05:29:07;-2.00;85.70
21108;DHT22;10712;52.944;9.098;2023-02-28T05:31:33;-2.00;85.70
21108;DHT22;10712;52.944;9.098;2023-02-28T05:33:59;-1.90;85.70
21108;DHT22;10712;52.944;9.098;2023-02-28T05:36:25;-1.90;85.60
21108;DHT22;10712;52.944;9.098;2023-02-28T05:38:51;-1.90;85.50
21108;DHT22;10712;52.944;9.098;2023-02-28T05:41:18;-1.90;85.30
21108;DHT22;10712;52.944;9.098;2023-02-28T05:43:46;-1.90;84.90
21108;DHT22;10712;52.944;9.098;2023-02-28T05:46:12;-2.00;84.50
21108;DHT22;10712;52.944;9.098;2023-02-28T05:48:40;-2.00;84.60
21108;DHT22;10712;52.944;9.098;2023-02-28T05:51:08;-2.00;84.60
21108;DHT22;10712;52.944;9.098;2023-02-28T05:53:35;-2.00;84.90
21108;DHT22;10712;52.944;9.098;2023-02-28T05:56:01;-2.00;85.20
21108;DHT22;10712;52.944;9.098;2023-02-28T05:58:27;-2.00;85.20
21108;DHT22;10712;52.944;9.098;2023-02-28T06:00:57;-2.00;85.20
21108;DHT22;10712;52.944;9.098;2023-02-28T06:03:24;-2.00;84.90
21108;DHT22;10712;52.944;9.098;2023-02-28T06:05:50;-2.00;84.80
21108;DHT22;10712;52.944;9.098;2023-02-28T06:08:16;-2.00;84.80
21108;DHT22;10712;52.944;9.098;2023-02-28T06:10:42;-2.00;84.80
21108;DHT22;10712;52.944;9.098;2023-02-28T06:13:08;-2.00;85.00
21108;DHT22;10712;52.944;9.098;2023-02-28T06:15:33;-2.00;84.80
21108;DHT22;10712;52.944;9.098;2023-02-28T06:17:59;-2.10;84.10
21108;DHT22;10712;52.944;9.098;2023-02-28T06:20:27;-2.20;84.30
21108;DHT22;10712;52.944;9.098;2023-02-28T06:22:57;-2.20;84.90
21108;DHT22;10712;52.944;9.098;2023-02-28T06:25:26;-2.20;85.10
21108;DHT22;10712;52.944;9.098;2023-02-28T06:27:54;-2.30;84.80
21108;DHT22;10712;52.944;9.098;2023-02-28T06:30:20;-2.30;85.10
21108;DHT22;10712;52.944;9.098;2023-02-28T06:32:52;-2.30;85.30
21108;DHT22;10712;52.944;9.098;2023-02-28T06:35:18;-2.30;85.20
21108;DHT22;10712;52.944;9.098;2023-02-28T06:37:44;-2.20;85.40
21108;DHT22;10712;52.944;9.098;2023-02-28T06:40:10;-2.20;85.30
21108;DHT22;10712;52.944;9.098;2023-02-28T06:42:38;-2.20;85.50
21108;DHT22;10712;52.944;9.098;2023-02-28T06:45:04;-2.20;85.60
21108;DHT22;10712;52.944;9.098;2023-02-28T06:47:35;-2.20;85.60
21108;DHT22;10712;52.944;9.098;2023-02-28T06:50:02;-2.20;85.60
21108;DHT22;10712;52.944;9.098;2023-02-28T06:52:29;-2.20;85.50
21108;DHT22;10712;52.944;9.098;2023-02-28T06:54:55;-2.20;85.50
21108;DHT22;10712;52.944;9.098;2023-02-28T06:57:35;-2.10;85.50
21108;DHT22;10712;52.944;9.098;2023-02-28T07:00:07;-2.10;85.50
21108;DHT22;10712;52.944;9.098;2023-02-28T07:02:37;-2.10;85.30
21108;DHT22;10712;52.944;9.098;2023-02-28T07:05:06;-2.10;85.40
21108;DHT22;10712;52.944;9.098;2023-02-28T07:07:32;-2.10;85.40
21108;DHT22;10712;52.944;9.098;2023-02-28T07:09:58;-2.10;85.70
21108;DHT22;10712;52.944;9.098;2023-02-28T07:12:24;-2.10;85.80
21108;DHT22;10712;52.944;9.098;2023-02-28T07:14:50;-2.00;85.80
21108;DHT22;10712;52.944;9.098;2023-02-28T07:17:16;-2.00;85.80
21108;DHT22;10712;52.944;9.098;2023-02-28T07:19:41;-2.00;85.90
21108;DHT22;10712;52.944;9.098;2023-02-28T07:22:07;-1.90;86.10
21108;DHT22;10712;52.944;9.098;2023-02-28T07:24:33;-1.90;85.90
21108;DHT22;10712;52.944;9.098;2023-02-28T07:26:59;-1.90;85.70
21108;DHT22;10712;52.944;9.098;2023-02-28T07:29:26;-1.90;85.80
21108;DHT22;10712;52.944;9.098;2023-02-28T07:31:52;-1.90;86.10
21108;DHT22;10712;52.944;9.098;2023-02-28T07:34:19;-1.80;86.30
21108;DHT22;10712;52.944;9.098;2023-02-28T07:36:45;-1.80;86.30
21108;DHT22;10712;52.944;9.098;2023-02-28T07:39:11;-1.70;86.40
21108;DHT22;10712;52.944;9.098;2023-02-28T07:41:37;-1.70;86.50
21108;DHT22;10712;52.944;9.098;2023-02-28T07:44:10;-1.60;86.70
21108;DHT22;10712;52.944;9.098;2023-02-28T07:46:36;-1.60;86.50
21108;DHT22;10712;52.944;9.098;2023-02-28T07:49:02;-1.60;86.60
21108;DHT22;10712;52.944;9.098;2023-02-28T07:51:30;-1.50;86.70
21108;DHT22;10712;52.944;9.098;2023-02-28T07:53:57;-1.50;86.80
21108;DHT22;10712;52.944;9.098;2023-02-28T07:56:23;-1.40;86.70
21108;DHT22;10712;52.944;9.098;2023-02-28T07:58:49;-1.40;86.70
21108;DHT22;10712;52.944;9.098;2023-02-28T08:01:15;-1.40;86.60
21108;DHT22;10712;52.944;9.098;2023-02-28T08:03:40;-1.30;86.70
21108;DHT22;10712;52.944;9.098;2023-02-28T08:06:08;-1.30;86.70
21108;DHT22;10712;52.944;9.098;2023-02-28T08:08:41;-1.30;86.70
21108;DHT22;10712;52.944;9.098;2023-02-28T08:11:07;-1.20;87.00
21108;DHT22;10712;52.944;9.098;2023-02-28T08:13:33;-1.20;86.90
21108;DHT22;10712;52.944;9.098;2023-02-28T08:16:01;-1.10;86.90
21108;DHT22;10712;52.944;9.098;2023-02-28T08:18:29;-1.10;87.00
21108;DHT22;10712;52.944;9.098;2023-02-28T08:20:55;-1.00;87.10
21108;DHT22;10712;52.944;9.098;2023-02-28T08:23:22;-1.00;87.40
21108;DHT22;10712;52.944;9.098;2023-02-28T08:25:56;-0.90;87.40
21108;DHT22;10712;52.944;9.098;2023-02-28T08:28:22;-0.90;87.40
21108;DHT22;10712;52.944;9.098;2023-02-28T08:30:48;-0.80;87.40
21108;DHT22;10712;52.944;9.098;2023-02-28T08:33:14;-0.70;87.30
21108;DHT22;10712;52.944;9.098;2023-02-28T08:35:40;-0.70;87.40
21108;DHT22;10712;52.944;9.098;2023-02-28T08:38:06;-0.60;87.40
21108;DHT22;10712;52.944;9.098;2023-02-28T08:40:31;-0.50;87.60
21108;DHT22;10712;52.944;9.098;2023-02-28T08:42:57;-0.50;87.60
21108;DHT22;10712;52.944;9.098;2023-02-28T08:45:24;-0.40;87.80
21108;DHT22;10712;52.944;9.098;2023-02-28T08:47:49;-0.30;87.80
21108;DHT22;10712;52.944;9.098;2023-02-28T08:50:18;-0.20;87.90
21108;DHT22;10712;52.944;9.098;2023-02-28T08:52:44;-0.20;87.80
21108;DHT22;10712;52.944;9.098;2023-02-28T08:55:10;-0.10;87.80
21108;DHT22;10712;52.944;9.098;2023-02-28T08:57:36;-0.10;87.70
21108;DHT22;10712;52.944;9.098;2023-02-28T09:00:03;0.00;87.90
21108;DHT22;10712;52.944;9.098;2023-02-28T09:02:33;0.10;88.00
21108;DHT22;10712;52.944;9.098;2023-02-28T09:04:59;0.20;88.00
21108;DHT22;10712;52.944;9.098;2023-02-28T09:07:25;0.20;88.00
21108;DHT22;10712;52.944;9.098;2023-02-28T09:09:51;0.30;87.90
21108;DHT22;10712;52.944;9.098;2023-02-28T09:12:24;0.40;87.90
21108;DHT22;10712;52.944;9.098;2023-02-28T09:14:51;0.50;87.90
21108;DHT22;10712;52.944;9.098;2023-02-28T09:17:18;0.60;88.00
21108;DHT22;10712;52.944;9.098;2023-02-28T09:19:44;0.70;88.00
21108;DHT22;10712;52.944;9.098;2023-02-28T09:22:12;0.80;88.00
21108;DHT22;10712;52.944;9.098;2023-02-28T09:24:38;0.90;87.90
21108;DHT22;10712;52.944;9.098;2023-02-28T09:27:04;1.00;87.70
21108;DHT22;10712;52.944;9.098;2023-02-28T09:29:32;1.20;87.60
21108;DHT22;10712;52.944;9.098;2023-02-28T09:32:00;1.30;87.50
21108;DHT22;10712;52.944;9.098;2023-02-28T09:34:27;1.40;87.10
21108;DHT22;10712;52.944;9.098;2023-02-28T09:36:56;1.50;86.50
21108;DHT22;10712;52.944;9.098;2023-02-28T09:39:22;1.60;85.80
21108;DHT22;10712;52.944;9.098;2023-02-28T09:41:51;1.80;84.30
21108;DHT22;10712;52.944;9.098;2023-02-28T09:46:58;2.00;83.10
21108;DHT22;10712;52.944;9.098;2023-02-28T09:49:38;2.10;82.90
21108;DHT22;10712;52.944;9.098;2023-02-28T09:52:15;2.30;82.60
21108;DHT22;10712;52.944;9.098;2023-02-28T09:54:45;2.40;81.70
21108;DHT22;10712;52.944;9.098;2023-02-28T10:00:10;2.60;80.80
21108;DHT22;10712;52.944;9.098;2023-02-28T10:05:43;2.70;78.10
21108;DHT22;10712;52.944;9.098;2023-02-28T10:08:30;2.80;77.50
21108;DHT22;10712;52.944;9.098;2023-02-28T10:11:07;2.80;76.60
21108;DHT22;10712;52.944;9.098;2023-02-28T10:16:50;2.90;73.70
21108;DHT22;10712;52.944;9.098;2023-02-28T10:19:38;3.00;72.60
21108;DHT22;10712;52.944;9.098;2023-02-28T10:22:15;3.00;71.10
21108;DHT22;10712;52.944;9.098;2023-02-28T10:24:47;3.10;70.50
21108;DHT22;10712;52.944;9.098;2023-02-28T10:29:50;3.20;69.60
21108;DHT22;10712;52.944;9.098;2023-02-28T10:32:19;3.30;69.60
21108;DHT22;10712;52.944;9.098;2023-02-28T10:34:59;3.40;68.20
21108;DHT22;10712;52.944;9.098;2023-02-28T10:37:51;3.50;67.70
21108;DHT22;10712;52.944;9.098;2023-02-28T10:45:30;3.90;65.50
21108;DHT22;10712;52.944;9.098;2023-02-28T10:48:02;4.00;65.60
21108;DHT22;10712;52.944;9.098;2023-02-28T11:01:39;4.60;61.20
21108;DHT22;10712;52.944;9.098;2023-02-28T11:04:38;4.70;60.70
21108;DHT22;10712;52.944;9.098;2023-02-28T11:07:20;4.80;60.60
21108;DHT22;10712;52.944;9.098;2023-02-28T11:09:55;4.80;61.30
21108;DHT22;10712;52.944;9.098;2023-02-28T11:12:34;4.90;60.90
21108;DHT22;10712;52.944;9.098;2023-02-28T11:15:26;5.00;60.70
21108;DHT22;10712;52.944;9.098;2023-02-28T11:18:19;5.10;61.00
21108;DHT22;10712;52.944;9.098;2023-02-28T11:20:54;5.10;61.50
21108;DHT22;10712;52.944;9.098;2023-02-28T11:23:25;5.20;59.70
21108;DHT22;10712;52.944;9.098;2023-02-28T11:25:57;5.10;60.20
21108;DHT22;10712;52.944;9.098;2023-02-28T11:28:35;5.10;61.00
21108;DHT22;10712;52.944;9.098;2023-02-28T11:33:55;5.30;58.70
21108;DHT22;10712;52.944;9.098;2023-02-28T11:36:30;5.40;58.70
21108;DHT22;10712;52.944;9.098;2023-02-28T11:39:00;5.40;59.60
21108;DHT22;10712;52.944;9.098;2023-02-28T11:50:54;5.40;59.30
21108;DHT22;10712;52.944;9.098;2023-02-28T11:55:59;5.50;59.60
21108;DHT22;10712;52.944;9.098;2023-02-28T12:02:28;5.40;59.50
21108;DHT22;10712;52.944;9.098;2023-02-28T12:07:41;5.40;59.00
21108;DHT22;10712;52.944;9.098;2023-02-28T12:10:31;5.50;59.60
21108;DHT22;10712;52.944;9.098;2023-02-28T12:13:24;5.50;60.00
21108;DHT22;10712;52.944;9.098;2023-02-28T12:16:13;5.50;60.20
21108;DHT22;10712;52.944;9.098;2023-02-28T12:24:49;5.50;60.00
21108;DHT22;10712;52.944;9.098;2023-02-28T12:27:29;5.50;59.60
21108;DHT22;10712;52.944;9.098;2023-02-28T12:30:13;5.50;58.60
21108;DHT22;10712;52.944;9.098;2023-02-28T12:32:50;5.50;58.60
21108;DHT22;10712;52.944;9.098;2023-02-28T12:35:28;5.50;59.20
21108;DHT22;10712;52.944;9.098;2023-02-28T12:38:13;5.50;58.50
21108;DHT22;10712;52.944;9.098;2023-02-28T12:40:55;5.50;59.40
21108;DHT22;10712;52.944;9.098;2023-02-28T12:43:34;5.50;59.50
21108;DHT22;10712;52.944;9.098;2023-02-28T12:48:56;5.40;58.80
21108;DHT22;10712;52.944;9.098;2023-02-28T12:51:25;5.40;58.80
21108;DHT22;10712;52.944;9.098;2023-02-28T12:56:56;5.50;58.80
21108;DHT22;10712;52.944;9.098;2023-02-28T12:59:52;5.50;58.80
21108;DHT22;10712;52.944;9.098;2023-02-28T13:10:25;6.20;55.90
21108;DHT22;10712;52.944;9.098;2023-02-28T13:13:04;6.20;56.40
21108;DHT22;10712;52.944;9.098;2023-02-28T13:15:30;6.20;56.60
21108;DHT22;10712;52.944;9.098;2023-02-28T13:18:00;6.20;56.30
21108;DHT22;10712;52.944;9.098;2023-02-28T13:20:27;6.20;56.50
21108;DHT22;10712;52.944;9.098;2023-02-28T13:22:59;6.30;56.20
21108;DHT22;10712;52.944;9.098;2023-02-28T13:28:10;6.50;55.50
21108;DHT22;10712;52.944;9.098;2023-02-28T13:33:31;6.60;55.50
21108;DHT22;10712;52.944;9.098;2023-02-28T13:36:25;6.50;55.70
21108;DHT22;10712;52.944;9.098;2023-02-28T13:39:00;6.40;55.50
21108;DHT22;10712;52.944;9.098;2023-02-28T13:41:47;6.40;56.00
21108;DHT22;10712;52.944;9.098;2023-02-28T13:44:18;6.30;55.90
21108;DHT22;10712;52.944;9.098;2023-02-28T13:52:14;6.30;56.10
21108;DHT22;10712;52.944;9.098;2023-02-28T13:55:13;6.30;56.20
21108;DHT22;10712;52.944;9.098;2023-02-28T14:05:09;6.30;55.10
21108;DHT22;10712;52.944;9.098;2023-02-28T14:07:31;6.40;55.40
21108;DHT22;10712;52.944;9.098;2023-02-28T14:10:06;6.40;55.70
21108;DHT22;10712;52.944;9.098;2023-02-28T14:20:58;6.30;55.70
21108;DHT22;10712;52.944;9.098;2023-02-28T14:38:49;6.20;55.90
21108;DHT22;10712;52.944;9.098;2023-02-28T14:41:30;6.20;56.00
21108;DHT22;10712;52.944;9.098;2023-02-28T14:44:02;6.20;56.20
21108;DHT22;10712;52.944;9.098;2023-02-28T14:46:40;6.20;56.20
21108;DHT22;10712;52.944;9.098;2023-02-28T14:49:34;6.20;56.20
21108;DHT22;10712;52.944;9.098;2023-02-28T14:52:13;6.10;56.40
21108;DHT22;10712;52.944;9.098;2023-02-28T14:54:43;6.10;56.40
21108;DHT22;10712;52.944;9.098;2023-02-28T14:57:30;6.10;56.60
21108;DHT22;10712;52.944;9.098;2023-02-28T15:00:16;6.10;56.40
21108;DHT22;10712;52.944;9.098;2023-02-28T15:02:48;6.10;56.60
21108;DHT22;10712;52.944;9.098;2023-02-28T15:07:44;6.10;57.00
21108;DHT22;10712;52.944;9.098;2023-02-28T15:10:22;6.10;57.20
21108;DHT22;10712;52.944;9.098;2023-02-28T15:15:58;6.10;57.50
21108;DHT22;10712;52.944;9.098;2023-02-28T15:18:48;6.10;57.60
21108;DHT22;10712;52.944;9.098;2023-02-28T15:24:07;6.00;57.50
21108;DHT22;10712;52.944;9.098;2023-02-28T15:26:42;6.00;57.50
21108;DHT22;10712;52.944;9.098;2023-02-28T15:29:16;5.90;57.50
21108;DHT22;10712;52.944;9.098;2023-02-28T15:31:55;5.90;57.60
21108;DHT22;10712;52.944;9.098;2023-02-28T15:37:24;5.80;57.80
21108;DHT22;10712;52.944;9.098;2023-02-28T15:39:53;5.80;57.70
21108;DHT22;10712;52.944;9.098;2023-02-28T15:42:22;5.80;57.80
21108;DHT22;10712;52.944;9.098;2023-02-28T15:44:52;5.80;57.80
21108;DHT22;10712;52.944;9.098;2023-02-28T15:47:24;5.70;57.80
21108;DHT22;10712;52.944;9.098;2023-02-28T15:49:59;5.70;58.00
21108;DHT22;10712;52.944;9.098;2023-02-28T15:52:34;5.70;58.20
21108;DHT22;10712;52.944;9.098;2023-02-28T15:55:24;5.60;58.30
21108;DHT22;10712;52.944;9.098;2023-02-28T15:57:55;5.60;58.40
21108;DHT22;10712;52.944;9.098;2023-02-28T16:00:27;5.50;58.40
21108;DHT22;10712;52.944;9.098;2023-02-28T16:02:55;5.50;58.50
21108;DHT22;10712;52.944;9.098;2023-02-28T16:05:30;5.50;58.60
21108;DHT22;10712;52.944;9.098;2023-02-28T16:08:08;5.50;58.50
21108;DHT22;10712;52.944;9.098;2023-02-28T16:10:38;5.40;58.50
21108;DHT22;10712;52.944;9.098;2023-02-28T16:13:05;5.40;58.70
21108;DHT22;10712;52.944;9.098;2023-02-28T16:15:37;5.30;58.90
21108;DHT22;10712;52.944;9.098;2023-02-28T16:18:09;5.30;59.10
21108;DHT22;10712;52.944;9.098;2023-02-28T16:20:37;5.20;59.30
21108;DHT22;10712;52.944;9.098;2023-02-28T16:23:04;5.20;59.40
21108;DHT22;10712;52.944;9.098;2023-02-28T16:25:40;5.20;59.50
21108;DHT22;10712;52.944;9.098;2023-02-28T16:28:15;5.10;59.70
21108;DHT22;10712;52.944;9.098;2023-02-28T16:30:54;5.10;59.80
21108;DHT22;10712;52.944;9.098;2023-02-28T16:33:20;5.00;60.10
21108;DHT22;10712;52.944;9.098;2023-02-28T16:35:45;5.00;60.50
21108;DHT22;10712;52.944;9.098;2023-02-28T16:38:11;5.00;60.70
21108;DHT22;10712;52.944;9.098;2023-02-28T16:40:37;5.00;60.90
21108;DHT22;10712;52.944;9.098;2023-02-28T16:43:10;4.90;61.00
21108;DHT22;10712;52.944;9.098;2023-02-28T16:45:41;4.90;61.40
21108;DHT22;10712;52.944;9.098;2023-02-28T16:48:12;4.80;61.40
21108;DHT22;10712;52.944;9.098;2023-02-28T16:50:40;4.80;61.50
21108;DHT22;10712;52.944;9.098;2023-02-28T16:53:06;4.70;61.90
21108;DHT22;10712;52.944;9.098;2023-02-28T16:55:31;4.60;61.80
21108;DHT22;10712;52.944;9.098;2023-02-28T16:57:59;4.60;62.10
21108;DHT22;10712;52.944;9.098;2023-02-28T17:00:28;4.50;62.20
21108;DHT22;10712;52.944;9.098;2023-02-28T17:02:57;4.50;62.10
21108;DHT22;10712;52.944;9.098;2023-02-28T17:05:25;4.40;62.40
21108;DHT22;10712;52.944;9.098;2023-02-28T17:07:53;4.30;62.70
21108;DHT22;10712;52.944;9.098;2023-02-28T17:10:22;4.20;62.50
21108;DHT22;10712;52.944;9.098;2023-02-28T17:12:50;4.10;62.70
21108;DHT22;10712;52.944;9.098;2023-02-28T17:15:18;4.00;63.10
21108;DHT22;10712;52.944;9.098;2023-02-28T17:17:45;3.90;63.30
21108;DHT22;10712;52.944;9.098;2023-02-28T17:20:20;3.80;63.50
21108;DHT22;10712;52.944;9.098;2023-02-28T17:22:52;3.70;64.00
21108;DHT22;10712;52.944;9.098;2023-02-28T17:25:19;3.70;64.60
21108;DHT22;10712;52.944;9.098;2023-02-28T17:27:46;3.60;64.70
21108;DHT22;10712;52.944;9.098;2023-02-28T17:30:20;3.50;64.40
21108;DHT22;10712;52.944;9.098;2023-02-28T17:32:55;3.40;64.60
21108;DHT22;10712;52.944;9.098;2023-02-28T17:35:22;3.20;64.80
21108;DHT22;10712;52.944;9.098;2023-02-28T17:37:48;3.10;65.00
21108;DHT22;10712;52.944;9.098;2023-02-28T17:40:17;3.10;65.80
21108;DHT22;10712;52.944;9.098;2023-02-28T17:42:45;3.00;66.40
21108;DHT22;10712;52.944;9.098;2023-02-28T17:45:12;3.00;66.70
21108;DHT22;10712;52.944;9.098;2023-02-28T17:47:41;3.00;67.30
21108;DHT22;10712;52.944;9.098;2023-02-28T17:50:19;2.90;67.40
21108;DHT22;10712;52.944;9.098;2023-02-28T17:52:47;2.90;67.50
21108;DHT22;10712;52.944;9.098;2023-02-28T17:55:13;2.90;67.70
21108;DHT22;10712;52.944;9.098;2023-02-28T17:57:39;2.80;67.30
21108;DHT22;10712;52.944;9.098;2023-02-28T18:00:08;2.80;67.10
21108;DHT22;10712;52.944;9.098;2023-02-28T18:02:37;2.70;67.20
21108;DHT22;10712;52.944;9.098;2023-02-28T18:05:04;2.70;67.10
21108;DHT22;10712;52.944;9.098;2023-02-28T18:07:31;2.60;67.30
21108;DHT22;10712;52.944;9.098;2023-02-28T18:09:57;2.60;67.50
21108;DHT22;10712;52.944;9.098;2023-02-28T18:12:22;2.50;67.80
21108;DHT22;10712;52.944;9.098;2023-02-28T18:14:48;2.50;68.10
21108;DHT22;10712;52.944;9.098;2023-02-28T18:17:15;2.50;68.40
21108;DHT22;10712;52.944;9.098;2023-02-28T18:19:41;2.50;68.40
21108;DHT22;10712;52.944;9.098;2023-02-28T18:22:07;2.40;68.40
21108;DHT22;10712;52.944;9.098;2023-02-28T18:24:33;2.40;68.60
21108;DHT22;10712;52.944;9.098;2023-02-28T18:26:59;2.40;68.80
21108;DHT22;10712;52.944;9.098;2023-02-28T18:29:27;2.30;68.50
21108;DHT22;10712;52.944;9.098;2023-02-28T18:31:54;2.20;68.30
21108;DHT22;10712;52.944;9.098;2023-02-28T18:34:22;2.20;68.60
21108;DHT22;10712;52.944;9.098;2023-02-28T18:36:50;2.10;68.90
21108;DHT22;10712;52.944;9.098;2023-02-28T18:39:17;2.10;69.40